Time;durP1;ratioP1;P1;durP2;ratioP2;P2;SDS_P1;SDS_P2;PMS_P1;PMS_P2;Temp;Humidity;BMP_temperature;BMP_pressure;BME280_temperature;BME280_humidity;BME280_pressure;Samples;Min_cycle;Max_cycle;Signal;HPM_P1;HPM_P2
2022/06/22 00:00:24;;;;;;;0.00;0.00;;;20.60;62.80;;;;;;5070661;28;20048;-76
2022/06/22 00:02:53;;;;;;;0.00;0.00;;;20.60;62.90;;;;;;5044893;28;20025;-73
2022/06/22 00:05:47;;;;;;;0.00;0.00;;;20.60;63.00;;;;;;5067082;28;20025;-73
2022/06/22 00:08:18;;;;;;;0.00;0.00;;;20.60;63.10;;;;;;5055808;28;20083;-74
2022/06/22 00:11:12;;;;;;;0.00;0.00;;;20.50;63.00;;;;;;5060846;28;20067;-73
2022/06/22 00:13:44;;;;;;;0.00;0.00;;;20.50;63.30;;;;;;5043102;28;20108;-73
2022/06/22 00:16:19;;;;;;;0.00;0.00;;;20.50;63.30;;;;;;5067338;28;20300;-73
2022/06/22 00:18:47;;;;;;;0.00;0.00;;;20.50;63.30;;;;;;5067101;28;20023;-79
2022/06/22 00:21:16;;;;;;;;;;;20.50;63.30;;;;;;5064584;28;20033;-74
2022/06/22 00:23:46;;;;;;;0.00;0.00;;;20.50;63.40;;;;;;5059868;28;19909;-73
2022/06/22 00:26:23;;;;;;;0.00;0.00;;;20.50;63.30;;;;;;5049747;28;20041;-73
2022/06/22 00:29:04;;;;;;;0.00;0.00;;;20.50;63.60;;;;;;5057912;28;20062;-73
2022/06/22 00:31:47;;;;;;;0.00;0.00;;;20.40;63.40;;;;;;5065146;28;20040;-73
2022/06/22 00:34:26;;;;;;;0.00;0.00;;;20.40;63.40;;;;;;5065954;28;20066;-73
2022/06/22 00:37:03;;;;;;;0.00;0.00;;;20.40;63.90;;;;;;5062552;28;20035;-73
2022/06/22 00:39:28;;;;;;;0.00;0.00;;;20.40;63.60;;;;;;5069574;28;20021;-73
2022/06/22 00:42:24;;;;;;;0.00;0.00;;;20.40;63.60;;;;;;5062641;28;20067;-74
2022/06/22 00:44:52;;;;;;;0.00;0.00;;;20.40;64.00;;;;;;5059165;28;20035;-74
2022/06/22 00:47:26;;;;;;;0.00;0.00;;;19.60;63.80;;;;;;5064594;28;20436;-73
2022/06/22 00:49:59;;;;;;;0.00;0.00;;;20.30;64.10;;;;;;5067515;28;20013;-76
2022/06/22 00:52:45;;;;;;;0.00;0.00;;;20.30;64.40;;;;;;5045195;28;20214;-77
2022/06/22 00:55:33;;;;;;;0.00;0.00;;;20.30;64.30;;;;;;5065585;28;20025;-75
2022/06/22 00:58:08;;;;;;;0.00;0.00;;;20.30;64.80;;;;;;5071447;28;20062;-74
2022/06/22 01:00:39;;;;;;;0.00;0.00;;;20.30;65.00;;;;;;5068568;28;20061;-73
2022/06/22 01:03:17;;;;;;;0.00;0.00;;;20.30;65.60;;;;;;5066989;28;20024;-76
2022/06/22 01:05:55;;;;;;;0.00;0.00;;;20.30;65.80;;;;;;5068807;28;20041;-73
2022/06/22 01:08:24;;;;;;;0.00;0.00;;;20.20;65.90;;;;;;5051169;28;20204;-74
2022/06/22 01:11:06;;;;;;;0.00;0.00;;;20.20;66.00;;;;;;5063239;28;20080;-74
2022/06/22 01:13:42;;;;;;;0.00;0.00;;;20.20;66.10;;;;;;5068644;28;20036;-74
2022/06/22 01:16:25;;;;;;;0.00;0.00;;;20.20;66.10;;;;;;5069678;28;20026;-73
2022/06/22 01:19:14;;;;;;;0.00;0.00;;;20.20;66.10;;;;;;5061005;28;20027;-73
2022/06/22 01:21:45;;;;;;;0.00;0.00;;;20.10;66.00;;;;;;5054490;28;20017;-72
2022/06/22 01:24:44;;;;;;;0.00;0.00;;;20.10;66.10;;;;;;5070542;28;20031;-75
2022/06/22 01:27:28;;;;;;;0.00;0.00;;;20.10;66.00;;;;;;5064765;28;20049;-72
2022/06/22 01:29:58;;;;;;;0.00;0.00;;;20.10;66.30;;;;;;5046034;28;20096;-73
2022/06/22 01:32:29;;;;;;;0.00;0.00;;;20.10;66.30;;;;;;5030431;28;20071;-73
2022/06/22 01:34:59;;;;;;;0.00;0.00;;;20.10;66.20;;;;;;5066851;28;20024;-73
2022/06/22 01:37:28;;;;;;;0.00;0.00;;;20.10;66.10;;;;;;5066553;28;20017;-73
2022/06/22 01:40:15;;;;;;;0.00;0.00;;;20.10;66.80;;;;;;5049220;28;20016;-73
2022/06/22 01:43:05;;;;;;;0.00;0.00;;;20.10;66.80;;;;;;5064771;28;20028;-73
2022/06/22 01:45:49;;;;;;;0.00;0.00;;;20.10;66.60;;;;;;5069234;28;20044;-73
2022/06/22 01:48:43;;;;;;;0.00;0.00;;;20.10;66.50;;;;;;5063140;28;20021;-76
2022/06/22 01:51:41;;;;;;;0.00;0.00;;;20.10;66.40;;;;;;5061192;28;20017;-74
2022/06/22 01:54:23;;;;;;;0.00;0.00;;;20.10;66.90;;;;;;5057157;28;20100;-73
2022/06/22 01:57:21;;;;;;;0.00;0.00;;;20.00;66.30;;;;;;5067867;28;20020;-73
2022/06/22 01:59:54;;;;;;;0.00;0.00;;;20.00;66.40;;;;;;5057044;28;20056;-73
2022/06/22 02:02:49;;;;;;;0.00;0.00;;;20.00;66.40;;;;;;5070882;28;20078;-74
2022/06/22 02:05:38;;;;;;;0.00;0.00;;;20.00;66.30;;;;;;5064603;28;20276;-74
2022/06/22 02:08:21;;;;;;;0.00;0.00;;;20.00;66.60;;;;;;5062340;28;20040;-74
2022/06/22 02:11:02;;;;;;;0.00;0.00;;;20.00;66.80;;;;;;5067294;28;20215;-74
2022/06/22 02:13:39;;;;;;;0.00;0.00;;;20.00;66.70;;;;;;5060986;28;20020;-75
2022/06/22 02:16:18;;;;;;;0.00;0.00;;;19.60;66.00;;;;;;5066194;28;20147;-78
2022/06/22 02:18:56;;;;;;;0.00;0.00;;;20.00;66.00;;;;;;5064104;28;20112;-74
2022/06/22 02:21:23;;;;;;;0.00;0.00;;;20.00;65.90;;;;;;5062897;28;20021;-74
2022/06/22 02:23:55;;;;;;;0.00;0.00;;;20.00;65.80;;;;;;5059252;28;20016;-74
2022/06/22 02:26:28;;;;;;;0.00;0.00;;;19.90;65.80;;;;;;5068974;28;20046;-74
2022/06/22 02:28:55;;;;;;;0.00;0.00;;;19.90;66.10;;;;;;5043459;28;20064;-73
2022/06/22 02:31:21;;;;;;;0.00;0.00;;;20.00;66.60;;;;;;5061325;28;20378;-73
2022/06/22 02:33:51;;;;;;;0.00;0.00;;;19.90;66.60;;;;;;5065024;28;20021;-73
2022/06/22 02:36:18;;;;;;;0.00;0.00;;;20.00;67.10;;;;;;5066806;28;20012;-73
2022/06/22 02:38:47;;;;;;;0.00;0.00;;;19.90;67.30;;;;;;5061693;28;20092;-73
2022/06/22 02:46:45;;;;;;;0.00;0.00;;;19.90;67.20;;;;;;5066877;28;20130;-73
2022/06/22 02:49:31;;;;;;;0.00;0.00;;;19.90;67.30;;;;;;5065410;28;20134;-75
2022/06/22 02:51:59;;;;;;;0.00;0.00;;;19.90;67.20;;;;;;5063159;28;20024;-74
2022/06/22 02:54:48;;;;;;;0.00;0.00;;;19.90;67.10;;;;;;5065413;28;20052;-74
2022/06/22 02:57:38;;;;;;;0.00;0.00;;;19.90;66.90;;;;;;5047215;28;20036;-74
2022/06/22 03:00:05;;;;;;;0.00;0.00;;;19.80;66.80;;;;;;5064936;28;20056;-74
2022/06/22 03:02:32;;;;;;;0.00;0.00;;;19.80;67.30;;;;;;5065506;28;20055;-72
2022/06/22 03:05:00;;;;;;;0.00;0.00;;;19.80;67.20;;;;;;5041021;28;20043;-73
2022/06/22 03:07:26;;;;;;;0.00;0.00;;;19.80;67.30;;;;;;5047926;28;20063;-77
2022/06/22 03:09:52;;;;;;;0.00;0.00;;;19.80;67.10;;;;;;5067407;28;20349;-74
2022/06/22 03:12:18;;;;;;;0.00;0.00;;;19.80;67.30;;;;;;5064299;28;20032;-74
2022/06/22 03:14:56;;;;;;;0.00;0.00;;;19.80;67.80;;;;;;5068324;28;20020;-77
2022/06/22 03:17:39;;;;;;;0.00;0.00;;;19.80;68.10;;;;;;5065358;28;20257;-73
2022/06/22 03:20:11;;;;;;;0.00;0.00;;;19.80;68.30;;;;;;5047609;28;20016;-79
2022/06/22 03:22:47;;;;;;;0.00;0.00;;;19.80;68.10;;;;;;5065208;28;20315;-73
2022/06/22 03:25:31;;;;;;;0.00;0.00;;;19.80;67.70;;;;;;5048480;28;20017;-73
2022/06/22 03:28:05;;;;;;;0.00;0.00;;;19.80;68.10;;;;;;5047441;28;20315;-76
2022/06/22 03:30:47;;;;;;;0.00;0.00;;;19.80;68.00;;;;;;5068052;28;20016;-73
2022/06/22 03:33:28;;;;;;;0.00;0.00;;;19.80;67.70;;;;;;5069545;28;20020;-74
2022/06/22 03:35:58;;;;;;;0.00;0.00;;;19.80;67.80;;;;;;5051300;28;20095;-73
2022/06/22 03:38:33;;;;;;;0.00;0.00;;;19.80;67.90;;;;;;5067706;28;20074;-75
2022/06/22 03:41:17;;;;;;;0.00;0.00;;;19.70;67.90;;;;;;5071045;28;20087;-73
2022/06/22 03:44:02;;;;;;;0.00;0.00;;;19.70;68.40;;;;;;5068742;28;20039;-74
2022/06/22 03:46:40;;;;;;;0.00;0.00;;;19.90;68.80;;;;;;5067081;28;20040;-74
2022/06/22 03:49:12;;;;;;;0.00;0.00;;;19.70;69.40;;;;;;5061933;28;20095;-77
2022/06/22 03:52:01;;;;;;;0.00;0.00;;;19.70;69.80;;;;;;5061387;28;20017;-73
2022/06/22 03:54:44;;;;;;;0.00;0.00;;;19.70;69.90;;;;;;5048510;28;20241;-73
2022/06/22 03:57:14;;;;;;;0.00;0.00;;;19.80;69.90;;;;;;5061600;28;20017;-74
2022/06/22 03:59:42;;;;;;;0.00;0.00;;;19.80;69.70;;;;;;5068544;28;20055;-74
2022/06/22 04:02:08;;;;;;;0.00;0.00;;;19.80;69.60;;;;;;5051059;28;20360;-74
2022/06/22 04:04:34;;;;;;;0.00;0.00;;;19.90;69.30;;;;;;5057453;28;20100;-74
2022/06/22 04:07:00;;;;;;;0.00;0.00;;;20.00;69.20;;;;;;5069369;28;20032;-74
2022/06/22 04:09:28;;;;;;;0.00;0.00;;;20.00;68.90;;;;;;5064949;28;20080;-73
2022/06/22 04:12:15;;;;;;;0.00;0.00;;;20.10;69.10;;;;;;5064740;28;20028;-73
2022/06/22 04:15:19;;;;;;;0.00;0.00;;;20.20;69.00;;;;;;5062827;28;20029;-74
2022/06/22 04:18:03;;;;;;;0.00;0.00;;;20.20;69.10;;;;;;5028036;28;20166;-78
2022/06/22 04:20:56;;;;;;;0.00;0.00;;;20.30;68.90;;;;;;5069822;28;20024;-74
2022/06/22 04:23:49;;;;;;;0.00;0.00;;;20.30;68.90;;;;;;5061200;28;20025;-74
2022/06/22 04:26:28;;;;;;;0.00;0.00;;;20.30;68.80;;;;;;5072706;28;20047;-78
2022/06/22 04:29:01;;;;;;;0.00;0.00;;;20.30;69.00;;;;;;5044482;28;20512;-73
2022/06/22 04:31:34;;;;;;;0.00;0.00;;;20.40;69.60;;;;;;5065093;28;20229;-74
2022/06/22 04:34:06;;;;;;;0.00;0.00;;;20.40;69.90;;;;;;5062190;28;20126;-73
2022/06/22 04:37:01;;;;;;;0.00;0.00;;;20.40;69.50;;;;;;5064578;28;20055;-74
2022/06/22 04:39:40;;;;;;;0.00;0.00;;;20.40;69.30;;;;;;5059809;28;20044;-73
2022/06/22 04:42:06;;;;;;;0.00;0.00;;;20.40;69.40;;;;;;5049372;28;20025;-74
2022/06/22 04:44:35;;;;;;;0.00;0.00;;;20.40;69.80;;;;;;5068737;28;20028;-77
2022/06/22 04:47:20;;;;;;;0.00;0.00;;;20.40;70.40;;;;;;5065401;28;20032;-74
2022/06/22 04:49:51;;;;;;;0.00;0.00;;;20.50;71.10;;;;;;5064248;28;20048;-74
2022/06/22 04:52:31;;;;;;;0.00;0.00;;;20.50;71.70;;;;;;5067532;28;20021;-75
2022/06/22 04:54:59;;;;;;;0.00;0.00;;;20.60;71.90;;;;;;5062529;28;20028;-74
2022/06/22 04:57:26;;;;;;;;;;;20.70;72.10;;;;;;5051624;28;20651;-73
2022/06/22 04:59:54;;;;;;;0.00;0.00;;;20.70;72.00;;;;;;5050578;28;19920;-72
2022/06/22 05:02:24;;;;;;;0.00;0.00;;;20.70;72.20;;;;;;5085697;28;20279;-73
2022/06/22 05:05:07;;;;;;;0.00;0.00;;;20.80;71.90;;;;;;5083669;28;20012;-77
2022/06/22 05:07:39;;;;;;;0.00;0.00;;;20.70;71.90;;;;;;5088361;28;20032;-74
2022/06/22 05:10:42;;;;;;;0.00;0.00;;;20.80;71.80;;;;;;5088574;28;20233;-74
2022/06/22 05:13:25;;;;;;;0.00;0.00;;;20.80;71.90;;;;;;5085163;28;20057;-73
2022/06/22 05:15:54;;;;;;;0.00;0.00;;;20.80;71.70;;;;;;5083037;28;20056;-74
2022/06/22 05:18:24;;;;;;;0.00;0.00;;;20.90;71.60;;;;;;5084735;28;20023;-78
2022/06/22 05:21:02;;;;;;;0.00;0.00;;;20.90;71.80;;;;;;5080611;28;20024;-73
2022/06/22 05:23:31;;;;;;;0.00;0.00;;;20.90;71.70;;;;;;5083568;28;20020;-73
2022/06/22 05:26:01;;;;;;;0.00;0.00;;;20.90;71.40;;;;;;5089102;28;20047;-76
2022/06/22 05:28:26;;;;;;;0.00;0.00;;;21.00;69.80;;;;;;5084604;28;20032;-74
2022/06/22 05:31:02;;;;;;;0.00;0.00;;;21.00;69.30;;;;;;5089733;28;20180;-75
2022/06/22 05:33:29;;;;;;;0.00;0.00;;;20.90;67.90;;;;;;5083663;28;20020;-74
2022/06/22 05:36:05;;;;;;;0.00;0.00;;;20.90;67.90;;;;;;5086711;28;20020;-74
2022/06/22 05:38:35;;;;;;;0.00;0.00;;;21.00;68.40;;;;;;5082758;28;20020;-74
2022/06/22 05:41:04;;;;;;;0.00;0.00;;;21.10;67.80;;;;;;5088783;28;20020;-75
2022/06/22 05:43:31;;;;;;;0.00;0.00;;;21.20;67.30;;;;;;5082115;28;20292;-75
2022/06/22 05:46:02;;;;;;;0.00;0.00;;;21.20;66.40;;;;;;5082479;28;20181;-74
2022/06/22 05:48:29;;;;;;;0.00;0.00;;;21.30;65.80;;;;;;5089449;28;20030;-74
2022/06/22 05:50:55;;;;;;;0.00;0.00;;;21.30;65.50;;;;;;5080171;28;20517;-79
2022/06/22 05:53:27;;;;;;;0.00;0.00;;;21.30;64.60;;;;;;5078965;28;20039;-75
2022/06/22 05:56:13;;;;;;;0.00;0.00;;;21.40;65.30;;;;;;5089879;28;20575;-75
2022/06/22 05:59:07;;;;;;;0.00;0.00;;;21.40;65.30;;;;;;5088410;28;20074;-75
2022/06/22 06:02:10;;;;;;;0.00;0.00;;;21.40;65.20;;;;;;5081533;28;20044;-75
2022/06/22 06:05:09;;;;;;;0.00;0.00;;;21.40;65.20;;;;;;5077741;28;20372;-76
2022/06/22 06:07:46;;;;;;;0.00;0.00;;;21.40;64.80;;;;;;5067506;28;20368;-75
2022/06/22 06:10:24;;;;;;;0.00;0.00;;;21.60;64.20;;;;;;5086597;28;20334;-75
2022/06/22 06:12:59;;;;;;;0.00;0.00;;;21.70;63.90;;;;;;5078209;28;20330;-75
2022/06/22 06:15:25;;;;;;;0.00;0.00;;;22.10;62.40;;;;;;5083754;28;20028;-75
2022/06/22 06:17:57;;;;;;;0.00;0.00;;;22.60;61.20;;;;;;5086773;28;20312;-76
2022/06/22 06:20:39;;;;;;;0.00;0.00;;;23.20;61.00;;;;;;5084431;28;20016;-75
2022/06/22 06:23:17;;;;;;;0.00;0.00;;;24.00;60.30;;;;;;5081924;28;20031;-75
2022/06/22 06:28:52;;;;;;;0.00;0.00;;;25.40;58.30;;;;;;5082024;28;20092;-75
2022/06/22 06:31:27;;;;;;;0.00;0.00;;;25.70;56.40;;;;;;5082697;28;20029;-75
2022/06/22 06:33:56;;;;;;;0.00;0.00;;;25.80;55.50;;;;;;5082110;28;20245;-75
2022/06/22 06:36:45;;;;;;;0.00;0.00;;;25.80;55.20;;;;;;5076958;28;20057;-75
2022/06/22 06:39:16;;;;;;;0.00;0.00;;;25.90;55.00;;;;;;5081463;28;20057;-77
2022/06/22 06:42:03;;;;;;;0.00;0.00;;;26.10;54.80;;;;;;5068927;28;20025;-75
2022/06/22 06:44:33;;;;;;;0.00;0.00;;;26.30;54.80;;;;;;5083849;28;20047;-78
2022/06/22 06:47:05;;;;;;;0.00;0.00;;;26.70;54.50;;;;;;5091961;28;20354;-78
2022/06/22 06:49:40;;;;;;;0.00;0.00;;;26.80;53.90;;;;;;5080384;28;20245;-75
2022/06/22 06:52:35;;;;;;;0.00;0.00;;;27.00;53.30;;;;;;5090390;28;20044;-75
2022/06/22 06:55:10;;;;;;;0.00;0.00;;;27.20;52.90;;;;;;5092089;28;20059;-75
2022/06/22 06:57:38;;;;;;;0.00;0.00;;;27.60;53.10;;;;;;5089568;28;20221;-76
2022/06/22 07:00:09;;;;;;;0.00;0.00;;;28.20;52.30;;;;;;5081616;28;20049;-74
2022/06/22 07:02:38;;;;;;;0.00;0.00;;;28.80;51.60;;;;;;5049650;28;20021;-80
2022/06/22 07:05:10;;;;;;;0.00;0.00;;;29.40;51.20;;;;;;5045154;28;20024;-75
2022/06/22 07:08:06;;;;;;;0.00;0.00;;;30.00;49.90;;;;;;5045186;28;20365;-77
2022/06/22 07:10:42;;;;;;;0.00;0.00;;;30.50;48.90;;;;;;5064728;28;20051;-76
2022/06/22 07:13:18;;;;;;;0.00;0.00;;;31.10;48.80;;;;;;5070321;28;20034;-74
2022/06/22 07:15:49;;;;;;;0.00;0.00;;;31.60;47.60;;;;;;5058987;28;20060;-77
2022/06/22 07:18:47;;;;;;;0.00;0.00;;;31.90;46.90;;;;;;5049921;28;20325;-77
2022/06/22 07:21:18;;;;;;;0.00;0.00;;;32.20;46.30;;;;;;5046328;28;20185;-75
2022/06/22 07:24:10;;;;;;;0.00;0.00;;;32.30;45.20;;;;;;5067678;28;20284;-75
2022/06/22 07:26:35;;;;;;;0.00;0.00;;;31.90;44.80;;;;;;5063028;28;20024;-80
2022/06/22 07:29:17;;;;;;;0.00;0.00;;;31.30;45.60;;;;;;5072537;28;20198;-84
2022/06/22 07:31:49;;;;;;;0.00;0.00;;;30.60;48.00;;;;;;5054054;28;20066;-81
2022/06/22 07:34:30;;;;;;;0.00;0.00;;;30.00;48.20;;;;;;5074518;28;20029;-83
2022/06/22 07:37:11;;;;;;;0.00;0.00;;;29.50;49.40;;;;;;5066182;28;20025;-82
2022/06/22 07:39:46;;;;;;;0.00;0.00;;;29.10;51.40;;;;;;5065497;28;20017;-77
2022/06/22 07:42:13;;;;;;;0.00;0.00;;;28.80;51.40;;;;;;5072410;28;20055;-79
2022/06/22 07:44:39;;;;;;;0.00;0.00;;;28.70;51.50;;;;;;5073213;28;20028;-82
2022/06/22 07:47:09;;;;;;;0.00;0.00;;;28.50;52.10;;;;;;5071955;28;20028;-80
2022/06/22 07:49:42;;;;;;;0.00;0.00;;;28.50;51.40;;;;;;5053044;28;20017;-82
2022/06/22 07:52:13;;;;;;;0.00;0.00;;;28.50;51.10;;;;;;5052151;28;20238;-80
2022/06/22 07:54:44;;;;;;;0.00;0.00;;;28.40;51.60;;;;;;5070582;28;20021;-81
2022/06/22 07:57:31;;;;;;;0.00;0.00;;;28.30;52.00;;;;;;5069968;28;20311;-78
2022/06/22 08:00:05;;;;;;;0.00;0.00;;;28.30;52.40;;;;;;5067130;28;20311;-85
2022/06/22 08:02:47;;;;;;;0.00;0.00;;;28.30;53.00;;;;;;5060255;28;20036;-79
2022/06/22 08:05:18;;;;;;;0.00;0.00;;;29.10;49.20;;;;;;5049325;28;20032;-80
2022/06/22 08:07:55;;;;;;;0.00;0.00;;;30.00;50.80;;;;;;5066248;28;20020;-78
2022/06/22 08:10:36;;;;;;;0.00;0.00;;;31.20;51.00;;;;;;5052422;28;20063;-79
2022/06/22 08:13:01;;;;;;;0.00;0.00;;;32.30;49.30;;;;;;5053456;28;20028;-79
2022/06/22 08:15:30;;;;;;;0.00;0.00;;;33.40;45.50;;;;;;5069935;28;20029;-80
2022/06/22 08:17:58;;;;;;;0.00;0.00;;;34.30;47.00;;;;;;5067425;28;20116;-82
2022/06/22 08:20:28;;;;;;;0.00;0.00;;;35.00;44.40;;;;;;5073443;28;20095;-83
2022/06/22 08:22:55;;;;;;;0.00;0.00;;;35.20;41.30;;;;;;5070490;28;20013;-80
2022/06/22 08:25:22;;;;;;;0.00;0.00;;;35.10;42.30;;;;;;5047482;28;20070;-79
2022/06/22 08:27:48;;;;;;;0.00;0.00;;;35.30;43.40;;;;;;5065329;28;20166;-82
2022/06/22 08:30:16;;;;;;;0.00;0.00;;;35.10;43.30;;;;;;5054488;28;20333;-82
2022/06/22 08:33:03;;;;;;;0.00;0.00;;;35.10;42.80;;;;;;5068668;28;20091;-84
2022/06/22 08:35:31;;;;;;;0.00;0.00;;;34.30;43.00;;;;;;5066482;28;20028;-84
2022/06/22 08:38:03;;;;;;;0.00;0.00;;;34.30;44.10;;;;;;5062042;28;20028;-82
2022/06/22 08:40:53;;;;;;;0.00;0.00;;;33.80;42.90;;;;;;5045167;28;20116;-84
2022/06/22 08:43:29;;;;;;;0.00;0.00;;;33.10;44.00;;;;;;5064719;28;20041;-82
2022/06/22 08:46:04;;;;;;;0.00;0.00;;;32.70;44.60;;;;;;5066568;28;20226;-81
2022/06/22 08:48:32;;;;;;;0.00;0.00;;;32.10;45.00;;;;;;5065893;28;20029;-76
2022/06/22 08:51:10;;;;;;;0.00;0.00;;;31.80;44.10;;;;;;5067229;28;20020;-82
2022/06/22 08:53:44;;;;;;;0.00;0.00;;;31.70;45.50;;;;;;5065124;28;20032;-79
2022/06/22 08:56:46;;;;;;;0.00;0.00;;;32.00;47.70;;;;;;5018148;28;20048;-78
2022/06/22 08:59:37;;;;;;;0.00;0.00;;;32.10;45.00;;;;;;5059488;28;20051;-75
2022/06/22 09:02:11;;;;;;;0.00;0.00;;;32.40;46.40;;;;;;5060496;28;20039;-75
2022/06/22 09:04:50;;;;;;;0.00;0.00;;;32.90;45.60;;;;;;5059498;28;20024;-75
2022/06/22 09:07:45;;;;;;;0.00;0.00;;;33.30;44.10;;;;;;5059716;28;20028;-75
2022/06/22 09:10:12;;;;;;;0.00;0.00;;;34.10;45.10;;;;;;5062999;28;20075;-74
2022/06/22 09:12:59;;;;;;;0.00;0.00;;;35.00;44.50;;;;;;5059894;28;20017;-73
2022/06/22 09:15:34;;;;;;;0.00;0.00;;;35.60;43.30;;;;;;5064803;28;20036;-74
2022/06/22 09:18:09;;;;;;;0.00;0.00;;;36.30;42.70;;;;;;5067537;28;20121;-74
2022/06/22 09:20:37;;;;;;;0.00;0.00;;;36.60;41.20;;;;;;5059497;28;20047;-75
2022/06/22 09:23:20;;;;;;;0.00;0.00;;;36.70;41.40;;;;;;5061062;28;20028;-75
2022/06/22 09:25:50;;;;;;;0.00;0.00;;;36.20;39.80;;;;;;5061693;28;20093;-75
2022/06/22 09:28:45;;;;;;;0.00;0.00;;;35.70;41.40;;;;;;5060814;28;20095;-75
2022/06/22 09:31:34;;;;;;;0.00;0.00;;;35.90;40.90;;;;;;5060382;28;20024;-75
2022/06/22 09:34:27;;;;;;;0.00;0.00;;;35.60;40.70;;;;;;5055102;28;20020;-75
2022/06/22 09:37:09;;;;;;;0.00;0.00;;;35.70;43.90;;;;;;5058573;28;20025;-75
2022/06/22 09:39:56;;;;;;;0.00;0.00;;;36.00;42.10;;;;;;5050092;28;20112;-74
2022/06/22 09:42:43;;;;;;;0.00;0.00;;;36.50;42.90;;;;;;5059294;28;20032;-77
2022/06/22 09:45:55;;;;;;;0.00;0.00;;;37.00;40.40;;;;;;5060156;28;20036;-74
2022/06/22 09:48:47;;;;;;;0.00;0.00;;;37.50;40.50;;;;;;5018373;28;20115;-75
2022/06/22 09:51:31;;;;;;;0.00;0.00;;;37.50;39.60;;;;;;5014805;28;20317;-75
2022/06/22 09:56:19;;;;;;;0.00;0.00;;;37.00;39.00;;;;;;5018238;28;20112;-75
2022/06/22 09:57:05;;;;;;;0.00;0.00;;;36.20;39.40;;;;;;5016350;28;20029;-76
2022/06/22 09:59:53;;;;;;;0.00;0.00;;;37.10;41.40;;;;;;5017036;28;20044;-75
2022/06/22 10:02:24;;;;;;;0.00;0.00;;;38.70;41.00;;;;;;5017239;28;20045;-75
2022/06/22 10:05:08;;;;;;;0.00;0.00;;;40.00;38.60;;;;;;5018215;28;20029;-78
2022/06/22 10:07:42;;;;;;;0.00;0.00;;;41.30;39.20;;;;;;5009622;28;20022;-76
2022/06/22 10:10:41;;;;;;;0.00;0.00;;;41.70;35.10;;;;;;5013453;28;20041;-77
2022/06/22 10:13:39;;;;;;;0.00;0.00;;;42.90;35.70;;;;;;5017144;28;20307;-77
2022/06/22 10:16:39;;;;;;;0.00;0.00;;;43.80;33.70;;;;;;5016946;28;20026;-76
2022/06/22 10:19:26;;;;;;;0.00;0.00;;;43.70;33.70;;;;;;5044648;28;20044;-76
2022/06/22 10:22:19;;;;;;;0.00;0.00;;;44.40;34.40;;;;;;5082304;28;20075;-77
2022/06/22 10:25:14;;;;;;;0.00;0.00;;;43.30;33.30;;;;;;5086578;28;20828;-77
2022/06/22 10:28:06;;;;;;;;;;;43.70;32.90;;;;;;5078368;28;20032;-79
2022/06/22 10:30:55;;;;;;;0.00;0.00;;;44.10;33.50;;;;;;5077453;28;20297;-78
2022/06/22 10:33:43;;;;;;;0.00;0.00;;;45.00;32.70;;;;;;5083874;28;20016;-78
2022/06/22 10:36:24;;;;;;;0.00;0.00;;;44.80;32.30;;;;;;5090020;28;20040;-77
2022/06/22 10:39:16;;;;;;;0.00;0.00;;;44.90;33.00;;;;;;5089547;28;20346;-78
2022/06/22 10:45:09;;;;;;;0.00;0.00;;;45.90;32.80;;;;;;5082065;28;20046;-78
2022/06/22 10:47:43;;;;;;;0.00;0.00;;;46.10;33.30;;;;;;5084217;28;20020;-77
2022/06/22 10:50:27;;;;;;;0.00;0.00;;;46.60;31.80;;;;;;5081406;28;20033;-78
2022/06/22 10:53:16;;;;;;;0.00;0.00;;;46.90;32.30;;;;;;5081270;28;20026;-79
2022/06/22 10:56:05;;;;;;;0.00;0.00;;;47.40;31.40;;;;;;5086339;28;20031;-78
2022/06/22 10:59:00;;;;;;;0.00;0.00;;;47.40;30.90;;;;;;5077387;28;20169;-78
2022/06/22 11:01:38;;;;;;;0.00;0.00;;;47.90;31.90;;;;;;5056769;28;20040;-78
2022/06/22 11:04:27;;;;;;;0.00;0.00;;;47.30;30.40;;;;;;5083044;28;20024;-77
2022/06/22 11:07:21;;;;;;;0.00;0.00;;;47.10;30.20;;;;;;5079101;28;20087;-79
2022/06/22 11:10:07;;;;;;;;;;;47.30;30.00;;;;;;5089919;28;20051;-78
2022/06/22 11:12:52;;;;;;;0.00;0.00;;;46.90;31.00;;;;;;5080809;28;20239;-80
2022/06/22 11:15:40;;;;;;;0.00;0.00;;;46.50;30.40;;;;;;5085887;28;20033;-80
2022/06/22 11:18:20;;;;;;;0.00;0.00;;;46.80;31.60;;;;;;5085248;28;20022;-78
2022/06/22 11:21:00;;;;;;;0.00;0.00;;;46.50;30.00;;;;;;5081502;28;20240;-79
2022/06/22 11:23:58;;;;;;;0.00;0.00;;;46.10;30.80;;;;;;5085135;28;20309;-79
2022/06/22 11:32:23;;;;;;;0.00;0.00;;;43.60;32.00;;;;;;5083067;28;20646;-80
2022/06/22 11:35:06;;;;;;;0.00;0.00;;;42.60;32.40;;;;;;5094854;28;20088;-79
2022/06/22 11:38:20;;;;;;;0.00;0.00;;;41.10;32.60;;;;;;5091998;28;20023;-78
2022/06/22 11:41:05;;;;;;;0.00;0.00;;;40.30;33.30;;;;;;5100786;28;20024;-80
2022/06/22 11:43:59;;;;;;;0.00;0.00;;;39.40;34.20;;;;;;5083529;28;20074;-81
2022/06/22 11:46:40;;;;;;;0.00;0.00;;;38.50;35.10;;;;;;5090477;28;20124;-77
2022/06/22 11:49:31;;;;;;;0.00;0.00;;;37.40;35.10;;;;;;5099530;28;20367;-79
2022/06/22 11:52:25;;;;;;;0.00;0.00;;;36.50;37.40;;;;;;5089167;28;20110;-79
2022/06/22 11:55:00;;;;;;;0.00;0.00;;;35.70;37.40;;;;;;5092031;28;20082;-77
2022/06/22 11:58:02;;;;;;;0.00;0.00;;;34.70;37.70;;;;;;5085074;28;20299;-78
2022/06/22 12:00:43;;;;;;;0.00;0.00;;;34.10;39.00;;;;;;4988674;28;20130;-79
2022/06/22 12:03:23;;;;;;;0.00;0.00;;;33.30;39.30;;;;;;5086183;28;20028;-78
2022/06/22 12:06:16;;;;;;;0.00;0.00;;;32.70;40.20;;;;;;5096128;28;20138;-79
2022/06/22 12:09:03;;;;;;;0.00;0.00;;;32.10;41.20;;;;;;5092287;28;20115;-74
2022/06/22 12:11:56;;;;;;;0.00;0.00;;;32.00;41.40;;;;;;5088576;28;20016;-74
2022/06/22 12:17:27;;;;;;;0.00;0.00;;;31.70;42.50;;;;;;5083675;28;20118;-74
2022/06/22 12:20:13;;;;;;;0.00;0.00;;;31.70;42.90;;;;;;5087807;28;20254;-77
2022/06/22 12:22:54;;;;;;;0.00;0.00;;;31.70;42.50;;;;;;5096926;28;20016;-75
2022/06/22 12:25:36;;;;;;;0.00;0.00;;;31.70;43.20;;;;;;5089211;28;20035;-75
2022/06/22 12:28:10;;;;;;;0.00;0.00;;;31.80;42.50;;;;;;5096623;28;20016;-76
2022/06/22 12:30:47;;;;;;;0.00;0.00;;;31.70;42.70;;;;;;5102399;28;20055;-77
2022/06/22 12:33:22;;;;;;;0.00;0.00;;;31.70;42.90;;;;;;5090270;28;20028;-77
2022/06/22 12:35:58;;;;;;;0.00;0.00;;;31.70;42.70;;;;;;5100817;28;20039;-77
2022/06/22 12:38:34;;;;;;;0.00;0.00;;;31.70;42.70;;;;;;5084835;28;20013;-77
2022/06/22 12:41:39;;;;;;;0.00;0.00;;;31.70;42.90;;;;;;5085822;28;20028;-75
2022/06/22 12:44:08;;;;;;;0.00;0.00;;;31.60;42.80;;;;;;5085392;28;20016;-77
2022/06/22 12:46:57;;;;;;;0.00;0.00;;;31.40;43.00;;;;;;5088508;28;20115;-75
2022/06/22 12:49:45;;;;;;;0.00;0.00;;;31.20;43.00;;;;;;5091203;28;20083;-78
2022/06/22 12:52:15;;;;;;;;;;;30.90;43.40;;;;;;5094784;28;20038;-75
2022/06/22 12:54:44;;;;;;;0.00;0.00;;;30.70;44.20;;;;;;5090182;28;19942;-80
2022/06/22 12:57:17;;;;;;;0.00;0.00;;;30.60;44.00;;;;;;5100063;28;20020;-80
2022/06/22 12:59:53;;;;;;;0.00;0.00;;;30.50;44.50;;;;;;5080363;28;20060;-78
2022/06/22 13:02:26;;;;;;;0.00;0.00;;;30.50;45.00;;;;;;5079995;28;20351;-78
2022/06/22 13:04:59;;;;;;;0.00;0.00;;;30.50;44.70;;;;;;5094752;28;20047;-77
2022/06/22 13:07:25;;;;;;;0.00;0.00;;;30.40;44.80;;;;;;5099101;28;20181;-77
2022/06/22 13:09:52;;;;;;;0.00;0.00;;;30.40;45.30;;;;;;5082895;28;20076;-78
2022/06/22 13:12:40;;;;;;;0.00;0.00;;;30.40;44.90;;;;;;5097481;28;20326;-76
2022/06/22 13:15:29;;;;;;;0.00;0.00;;;30.30;45.10;;;;;;5087711;28;20040;-80
2022/06/22 13:18:11;;;;;;;0.00;0.00;;;30.30;45.00;;;;;;5083158;28;20311;-77
2022/06/22 13:20:48;;;;;;;0.00;0.00;;;30.30;45.50;;;;;;5078708;28;20141;-78
2022/06/22 13:23:16;;;;;;;0.00;0.00;;;30.40;45.30;;;;;;5084942;28;20028;-79
2022/06/22 13:26:14;;;;;;;0.00;0.00;;;30.40;45.40;;;;;;5081633;28;20074;-80
2022/06/22 13:28:45;;;;;;;0.00;0.00;;;30.50;45.40;;;;;;5083672;28;20134;-79
2022/06/22 13:31:25;;;;;;;0.00;0.00;;;30.50;46.00;;;;;;5081742;28;20251;-80
2022/06/22 13:34:02;;;;;;;0.00;0.00;;;30.60;46.00;;;;;;5081447;28;20046;-77
2022/06/22 13:36:32;;;;;;;;;;;30.60;45.90;;;;;;5084335;28;20020;-77
2022/06/22 13:39:31;;;;;;;0.00;0.00;;;30.50;45.80;;;;;;5085173;28;19904;-76
2022/06/22 13:42:09;;;;;;;0.00;0.00;;;30.50;45.80;;;;;;5080602;28;20028;-76
2022/06/22 13:45:13;;;;;;;0.00;0.00;;;30.50;46.40;;;;;;5080221;28;20040;-79
2022/06/22 13:48:14;;;;;;;0.00;0.00;;;30.30;46.30;;;;;;5090295;28;20020;-79
2022/06/22 13:51:19;;;;;;;0.00;0.00;;;30.30;46.50;;;;;;5077328;28;20046;-79
2022/06/22 13:54:13;;;;;;;0.00;0.00;;;30.30;46.50;;;;;;5079230;28;20181;-81
2022/06/22 13:57:09;;;;;;;0.00;0.00;;;30.30;47.00;;;;;;5089927;28;20013;-78
2022/06/22 13:59:52;;;;;;;0.00;0.00;;;30.40;46.70;;;;;;5080667;28;20051;-78
2022/06/22 14:02:17;;;;;;;0.00;0.00;;;30.20;46.30;;;;;;5059942;28;20024;-77
2022/06/22 14:05:07;;;;;;;0.00;0.00;;;30.10;46.90;;;;;;5074903;28;20039;-77
2022/06/22 14:07:37;;;;;;;0.00;0.00;;;29.90;47.20;;;;;;5076555;28;20025;-77
2022/06/22 14:10:19;;;;;;;0.00;0.00;;;29.80;47.60;;;;;;5060236;28;20016;-77